Time;durP1;ratioP1;P1;durP2;ratioP2;P2;SDS_P1;SDS_P2;PMS_P1;PMS_P2;Temp;Humidity;BMP_temperature;BMP_pressure;BME280_temperature;BME280_humidity;BME280_pressure;Samples;Min_cycle;Max_cycle;Signal;HPM_P1;HPM_P2
2023/01/03 00:02:07;;;;;;;9.63;5.38;;;3.40;99.90;;;;;;4978511;28;20062;-60
2023/01/03 00:04:34;;;;;;;7.53;3.78;;;3.40;99.90;;;;;;4994681;28;20061;-61
2023/01/03 00:07:01;;;;;;;7.35;4.40;;;3.40;99.90;;;;;;4994191;28;20035;-61
2023/01/03 00:09:30;;;;;;;9.52;4.88;;;3.40;99.90;;;;;;4978152;28;20110;-60
2023/01/03 00:14:42;;;;;;;9.30;4.53;;;3.40;99.90;;;;;;4995809;28;20043;-60
2023/01/03 00:17:10;;;;;;;6.30;3.85;;;3.30;99.90;;;;;;4979206;28;20045;-60
2023/01/03 00:19:42;;;;;;;7.97;3.65;;;3.40;99.90;;;;;;4962407;28;20088;-61
2023/01/03 00:22:10;;;;;;;6.18;2.65;;;3.40;99.90;;;;;;4978901;28;20031;-60
2023/01/03 00:24:37;;;;;;;4.97;2.30;;;3.40;99.90;;;;;;4995340;28;20058;-60
2023/01/03 00:27:04;;;;;;;4.82;1.88;;;3.50;99.90;;;;;;4979963;28;20078;-61
2023/01/03 00:29:31;;;;;;;4.30;2.75;;;3.50;99.90;;;;;;4996001;28;20051;-61
2023/01/03 00:31:57;;;;;;;4.07;2.42;;;3.60;99.90;;;;;;4980149;28;20034;-60
2023/01/03 00:34:24;;;;;;;2.72;1.83;;;3.70;99.90;;;;;;4996956;28;20035;-61
2023/01/03 00:36:52;;;;;;;7.85;2.00;;;3.70;99.90;;;;;;4980631;28;20038;-61
2023/01/03 00:39:20;;;;;;;3.72;2.08;;;3.80;99.90;;;;;;4980380;28;20106;-61
2023/01/03 00:41:46;;;;;;;3.35;1.88;;;3.90;99.90;;;;;;4996679;28;20062;-61
2023/01/03 00:44:13;;;;;;;5.43;2.20;;;3.90;99.90;;;;;;4996711;28;20034;-61
2023/01/03 00:46:40;;;;;;;6.18;2.78;;;4.00;99.90;;;;;;4980529;28;20050;-61
2023/01/03 00:49:08;;;;;;;8.65;2.80;;;4.00;99.90;;;;;;4964215;28;20038;-61
2023/01/03 00:51:36;;;;;;;7.30;2.42;;;3.90;99.90;;;;;;4979979;28;20099;-61
2023/01/03 00:54:03;;;;;;;4.63;2.30;;;3.90;99.90;;;;;;4980519;28;20074;-61
2023/01/03 00:56:35;;;;;;;3.70;2.15;;;3.90;99.90;;;;;;4980415;28;20030;-61
2023/01/03 00:59:02;;;;;;;3.00;2.10;;;3.90;99.90;;;;;;4980590;28;20042;-60
2023/01/03 01:01:31;;;;;;;5.13;1.73;;;4.00;99.90;;;;;;4996664;28;20058;-61
2023/01/03 01:04:13;;;;;;;5.70;3.00;;;4.00;99.90;;;;;;4996197;28;20034;-61
2023/01/03 01:06:42;;;;;;;8.30;2.65;;;4.10;99.90;;;;;;4995929;28;20043;-61
2023/01/03 01:09:11;;;;;;;5.70;2.40;;;4.10;99.90;;;;;;4980054;28;20062;-61
2023/01/03 01:11:38;;;;;;;5.85;2.50;;;4.20;99.90;;;;;;4964011;28;20035;-60
2023/01/03 01:14:18;;;;;;;4.53;2.10;;;4.30;99.90;;;;;;4980372;28;20058;-60
2023/01/03 01:16:55;;;;;;;5.57;2.53;;;4.30;99.90;;;;;;4979623;28;20047;-60
2023/01/03 01:19:33;;;;;;;7.22;2.38;;;4.40;99.90;;;;;;4979792;28;20035;-59
2023/01/03 01:22:00;;;;;;;6.97;2.33;;;4.50;99.90;;;;;;4979943;28;20031;-60
2023/01/03 01:24:27;;;;;;;4.03;2.10;;;4.60;99.90;;;;;;4979777;28;20114;-60
2023/01/03 01:26:54;;;;;;;7.22;2.25;;;4.70;99.90;;;;;;4996199;28;20047;-60
2023/01/03 01:29:21;;;;;;;7.80;2.42;;;4.70;99.90;;;;;;4996314;28;20046;-59
2023/01/03 01:31:48;;;;;;;9.52;2.47;;;4.80;99.90;;;;;;4978941;28;20102;-60
2023/01/03 01:34:15;;;;;;;9.20;2.47;;;4.80;99.90;;;;;;4995675;28;20074;-60
2023/01/03 01:36:44;;;;;;;5.68;1.88;;;4.90;99.90;;;;;;4963351;28;20043;-60
2023/01/03 01:39:26;;;;;;;4.70;2.47;;;4.90;99.90;;;;;;4980368;28;20053;-60
2023/01/03 01:44:57;;;;;;;3.60;2.50;;;5.00;99.90;;;;;;4995956;28;20035;-61
2023/01/03 01:47:24;;;;;;;4.40;2.13;;;5.10;99.90;;;;;;4995877;28;20047;-61
2023/01/03 01:49:58;;;;;;;5.35;1.70;;;5.10;99.90;;;;;;4995403;28;20083;-60
2023/01/03 01:52:25;;;;;;;3.17;1.83;;;5.10;99.90;;;;;;4978582;28;20043;-60
2023/01/03 01:54:52;;;;;;;5.63;1.95;;;5.20;99.90;;;;;;4979006;28;20043;-60
2023/01/03 01:57:20;;;;;;;7.35;1.98;;;5.20;99.90;;;;;;4978693;28;20035;-61
2023/01/03 01:59:47;;;;;;;6.45;2.40;;;5.20;99.90;;;;;;4995037;28;20053;-60
2023/01/03 02:02:17;;;;;;;9.85;3.03;;;5.20;99.90;;;;;;4962518;28;20054;-60
2023/01/03 02:04:44;;;;;;;5.82;2.25;;;5.20;99.90;;;;;;4978656;28;20117;-60
2023/01/03 02:07:11;;;;;;;4.05;2.55;;;5.20;99.90;;;;;;4994970;28;20027;-60
2023/01/03 02:09:38;;;;;;;6.22;2.70;;;5.30;99.90;;;;;;4994856;28;20039;-60
2023/01/03 02:15:12;;;;;;;6.85;2.45;;;5.40;99.90;;;;;;4994569;28;20062;-60
2023/01/03 02:18:16;;;;;;;4.30;2.25;;;5.40;99.90;;;;;;4978269;28;20039;-60
2023/01/03 02:20:58;;;;;;;9.18;2.08;;;5.50;99.90;;;;;;4988733;28;20668;-60
2023/01/03 02:23:52;;;;;;;3.85;2.17;;;5.50;99.90;;;;;;4994726;28;20054;-60
2023/01/03 02:26:47;;;;;;;8.02;4.47;;;5.50;99.90;;;;;;4993717;28;20047;-60
2023/01/03 02:29:20;;;;;;;;;;;5.50;99.90;;;;;;4995289;28;20042;-60
2023/01/03 02:31:57;;;;;;;3.65;2.22;;;5.50;99.90;;;;;;4994514;28;19922;-60
2023/01/03 02:35:00;;;;;;;6.68;2.55;;;5.60;99.90;;;;;;4963355;28;20050;-61
2023/01/03 02:37:41;;;;;;;6.45;3.03;;;5.60;99.90;;;;;;4975648;29;20046;-63
2023/01/03 02:40:33;;;;;;;12.68;2.70;;;5.60;99.90;;;;;;4998076;28;20058;-61
2023/01/03 02:43:04;;;;;;;8.27;2.75;;;5.70;99.90;;;;;;4979827;28;20078;-60
2023/01/03 02:45:34;;;;;;;5.28;2.42;;;5.80;99.90;;;;;;4978362;28;20042;-61
2023/01/03 02:48:08;;;;;;;7.28;2.67;;;5.80;99.90;;;;;;4977848;28;20054;-60
2023/01/03 02:50:37;;;;;;;;;;;5.90;99.90;;;;;;4978123;28;20231;-60
2023/01/03 02:53:05;;;;;;;4.68;3.05;;;5.90;99.90;;;;;;4994557;28;19933;-60
2023/01/03 02:55:32;;;;;;;7.00;2.88;;;5.90;99.90;;;;;;4962284;28;20102;-61
2023/01/03 02:58:02;;;;;;;8.70;2.72;;;6.00;99.90;;;;;;4978205;28;20049;-61
2023/01/03 03:00:29;;;;;;;8.85;3.70;;;6.00;99.90;;;;;;4976275;28;20061;-60
2023/01/03 03:02:58;;;;;;;4.82;2.58;;;6.10;99.90;;;;;;4953549;29;20055;-60
2023/01/03 03:05:29;;;;;;;15.23;6.13;;;6.10;99.90;;;;;;4969789;28;20040;-62
2023/01/03 03:07:56;;;;;;;6.93;2.55;;;6.10;99.90;;;;;;4955291;29;20082;-60
2023/01/03 03:13:29;;;;;;;6.80;3.50;;;6.20;99.90;;;;;;4954238;29;20047;-60
2023/01/03 03:16:50;;;;;;;4.03;2.83;;;6.10;99.90;;;;;;4953342;29;20063;-60
2023/01/03 03:25:06;;;;;;;5.75;2.80;;;6.20;99.90;;;;;;4954357;29;20121;-60
2023/01/03 03:30:18;;;;;;;3.75;2.53;;;6.20;99.90;;;;;;4953507;29;20044;-60
2023/01/03 03:32:45;;;;;;;9.00;4.45;;;6.20;99.90;;;;;;4954279;29;20048;-60
2023/01/03 03:35:15;;;;;;;9.45;3.08;;;6.20;99.90;;;;;;4954061;29;20050;-60
2023/01/03 03:37:43;;;;;;;6.25;3.17;;;6.20;99.90;;;;;;4943571;29;20039;-60
2023/01/03 03:45:50;;;;;;;6.82;3.03;;;6.50;99.90;;;;;;4958461;29;20043;-60
2023/01/03 03:48:17;;;;;;;4.13;2.70;;;6.50;99.90;;;;;;4958415;29;20060;-60
2023/01/03 03:51:02;;;;;;;10.65;3.40;;;6.50;99.90;;;;;;4958275;29;20095;-61
2023/01/03 03:53:31;;;;;;;8.05;2.65;;;6.60;99.90;;;;;;4958526;29;20040;-60
2023/01/03 03:56:11;;;;;;;6.28;2.72;;;6.70;99.90;;;;;;4957759;29;20059;-61
2023/01/03 03:58:42;;;;;;;5.13;3.03;;;6.70;99.90;;;;;;4958707;29;20043;-61
2023/01/03 04:01:12;;;;;;;7.15;2.65;;;6.70;99.90;;;;;;4958952;28;20052;-61
2023/01/03 04:03:40;;;;;;;7.85;2.88;;;6.70;99.90;;;;;;4963939;28;20055;-61
2023/01/03 04:06:19;;;;;;;10.85;3.50;;;6.70;99.90;;;;;;4980184;28;20034;-61
2023/01/03 04:08:45;;;;;;;7.28;3.13;;;6.70;99.90;;;;;;4955959;28;20034;-62
2023/01/03 04:11:12;;;;;;;11.13;3.95;;;6.80;99.90;;;;;;4980373;28;20050;-60
2023/01/03 04:13:39;;;;;;;12.30;3.22;;;6.80;99.90;;;;;;4980863;28;20336;-60
2023/01/03 04:16:06;;;;;;;6.55;3.00;;;6.80;99.90;;;;;;4997081;28;20062;-61
2023/01/03 04:18:33;;;;;;;13.85;3.28;;;6.90;99.90;;;;;;4996677;28;20062;-60
2023/01/03 04:21:00;;;;;;;7.32;4.30;;;6.90;99.90;;;;;;4997436;28;20062;-61
2023/01/03 04:23:27;;;;;;;5.57;2.80;;;6.90;99.90;;;;;;4996949;28;20038;-60
2023/01/03 04:25:54;;;;;;;8.65;3.13;;;6.90;99.90;;;;;;4979792;28;20091;-60
2023/01/03 04:28:20;;;;;;;9.73;3.20;;;6.90;99.90;;;;;;4980417;28;20047;-60
2023/01/03 04:30:47;;;;;;;10.43;3.58;;;6.90;99.90;;;;;;4977348;28;20046;-60
2023/01/03 04:33:14;;;;;;;7.20;4.05;;;7.00;99.90;;;;;;4991605;28;20093;-61
2023/01/03 04:35:40;;;;;;;12.68;3.78;;;7.00;99.90;;;;;;4997437;28;20094;-61
2023/01/03 04:38:08;;;;;;;7.93;3.42;;;7.00;99.90;;;;;;4980677;28;20054;-61
2023/01/03 04:40:35;;;;;;;21.95;5.95;;;7.10;99.90;;;;;;4997364;28;20069;-60
2023/01/03 04:45:48;;;;;;;9.55;3.15;;;7.10;99.90;;;;;;4982668;28;20065;-61
2023/01/03 04:48:15;;;;;;;11.73;3.47;;;7.00;99.90;;;;;;4996698;28;20228;-60
2023/01/03 04:51:05;;;;;;;12.10;3.72;;;7.00;99.90;;;;;;4996884;28;20102;-60
2023/01/03 04:53:32;;;;;;;16.20;4.15;;;7.00;99.90;;;;;;4996788;28;20051;-60
2023/01/03 04:55:59;;;;;;;17.48;4.30;;;7.00;99.90;;;;;;4962871;28;20066;-60
2023/01/03 04:58:26;;;;;;;11.45;3.95;;;7.00;99.90;;;;;;4996795;28;20057;-60
2023/01/03 05:01:01;;;;;;;14.98;3.30;;;7.00;99.90;;;;;;4996271;28;20054;-60
2023/01/03 05:03:29;;;;;;;12.75;3.47;;;6.90;99.90;;;;;;4980178;28;20047;-64
2023/01/03 05:06:00;;;;;;;5.93;3.13;;;6.90;99.90;;;;;;4996594;28;20086;-61
2023/01/03 05:08:26;;;;;;;14.30;3.38;;;6.90;99.90;;;;;;4995997;28;20077;-61
2023/01/03 05:10:53;;;;;;;7.10;3.00;;;6.80;99.90;;;;;;4979342;28;20043;-60
2023/01/03 05:13:20;;;;;;;11.90;3.22;;;6.80;99.90;;;;;;4996055;28;20054;-60
2023/01/03 05:15:47;;;;;;;13.45;4.97;;;6.80;99.90;;;;;;4996197;28;20045;-60
2023/01/03 05:18:15;;;;;;;6.30;2.30;;;6.80;99.90;;;;;;4979801;28;20050;-60
2023/01/03 05:26:19;;;;;;;7.50;2.15;;;6.90;99.90;;;;;;4981530;28;20031;-59
2023/01/03 05:28:48;;;;;;;10.07;3.20;;;7.00;99.90;;;;;;4995836;28;20038;-60
2023/01/03 05:31:16;;;;;;;5.95;2.53;;;7.00;99.90;;;;;;4963211;28;20030;-60
2023/01/03 05:33:44;;;;;;;16.05;2.60;;;7.10;99.90;;;;;;4996090;28;20049;-59
2023/01/03 05:36:10;;;;;;;21.88;3.92;;;7.10;99.90;;;;;;4996214;28;20077;-60
2023/01/03 05:38:37;;;;;;;13.18;3.15;;;7.10;99.90;;;;;;4995719;28;20042;-60
2023/01/03 05:41:04;;;;;;;9.88;2.67;;;7.10;99.90;;;;;;4962506;28;20042;-59
2023/01/03 05:43:31;;;;;;;12.90;3.08;;;7.10;99.90;;;;;;4978762;28;20037;-61
2023/01/03 05:45:58;;;;;;;8.23;3.00;;;7.10;99.90;;;;;;4995423;28;20059;-60
2023/01/03 05:48:25;;;;;;;16.75;3.25;;;7.10;99.90;;;;;;4995648;28;20090;-62
2023/01/03 05:50:54;;;;;;;16.95;2.80;;;7.10;99.90;;;;;;4995500;28;20035;-60
2023/01/03 05:53:21;;;;;;;9.50;2.85;;;7.10;99.90;;;;;;4979331;28;20030;-60
2023/01/03 05:55:48;;;;;;;9.35;2.35;;;7.10;99.90;;;;;;4995044;28;20064;-60
2023/01/03 05:58:15;;;;;;;13.63;2.60;;;7.10;99.90;;;;;;4995690;28;20057;-60
2023/01/03 06:00:42;;;;;;;7.22;2.47;;;7.10;99.90;;;;;;4995030;28;20204;-60
2023/01/03 06:03:09;;;;;;;12.73;2.85;;;7.10;99.90;;;;;;4978963;28;20078;-63
2023/01/03 06:05:36;;;;;;;8.75;2.33;;;7.10;99.90;;;;;;4994736;28;20062;-59
2023/01/03 06:08:02;;;;;;;9.48;2.45;;;7.10;99.90;;;;;;4994611;28;20051;-59
2023/01/03 06:10:29;;;;;;;11.60;2.45;;;7.10;99.90;;;;;;4994482;28;20050;-59
2023/01/03 06:12:56;;;;;;;12.02;2.78;;;7.10;99.90;;;;;;4994555;28;20058;-59
2023/01/03 06:15:23;;;;;;;6.78;2.15;;;7.10;99.90;;;;;;4994441;28;20045;-60
2023/01/03 06:17:56;;;;;;;12.75;2.50;;;7.20;99.90;;;;;;4995159;28;20082;-59
2023/01/03 06:20:25;;;;;;;10.90;2.55;;;7.20;99.90;;;;;;4963362;28;20050;-60
2023/01/03 06:22:53;;;;;;;7.15;2.65;;;7.20;99.90;;;;;;4978085;28;20074;-60
2023/01/03 06:25:20;;;;;;;6.43;2.17;;;7.30;99.90;;;;;;4978005;28;20047;-59
2023/01/03 06:27:47;;;;;;;12.45;2.67;;;7.30;99.90;;;;;;4976453;28;20042;-60
2023/01/03 06:30:15;;;;;;;12.32;2.40;;;7.30;99.90;;;;;;4994504;28;20030;-60
2023/01/03 06:32:44;;;;;;;13.60;2.35;;;7.40;99.90;;;;;;4994504;28;20054;-60
2023/01/03 06:35:13;;;;;;;12.38;2.78;;;7.30;99.90;;;;;;4993947;28;20054;-60
2023/01/03 06:37:40;;;;;;;8.68;1.77;;;7.30;99.90;;;;;;4992547;28;20031;-59
2023/01/03 06:40:09;;;;;;;14.02;2.35;;;7.30;99.90;;;;;;4977648;28;20110;-60
2023/01/03 06:42:41;;;;;;;18.10;2.72;;;7.30;99.90;;;;;;4977251;28;20051;-60
2023/01/03 06:53:33;;;;;;;9.32;2.80;;;7.30;99.90;;;;;;4979333;28;20038;-60
2023/01/03 06:56:00;;;;;;;14.10;2.50;;;7.20;99.90;;;;;;4961974;28;20027;-59
2023/01/03 06:58:27;;;;;;;7.75;2.08;;;7.20;99.90;;;;;;4977060;28;20055;-60
2023/01/03 07:00:55;;;;;;;10.05;2.50;;;7.20;99.90;;;;;;4993936;28;20042;-60
2023/01/03 07:03:26;;;;;;;16.45;3.67;;;7.20;99.90;;;;;;4977264;28;20082;-60
2023/01/03 07:05:52;;;;;;;20.38;2.50;;;7.20;99.90;;;;;;4962006;28;20360;-61
2023/01/03 07:08:19;;;;;;;16.08;3.58;;;7.20;99.90;;;;;;4994127;28;20043;-60
2023/01/03 07:10:48;;;;;;;19.02;4.15;;;7.30;99.90;;;;;;4977314;28;20043;-60
2023/01/03 07:16:00;;;;;;;12.68;2.40;;;7.20;99.90;;;;;;4980079;28;20045;-61
2023/01/03 07:18:27;;;;;;;16.50;2.55;;;7.20;99.90;;;;;;4995713;28;20066;-61
2023/01/03 07:20:54;;;;;;;8.43;2.47;;;7.20;99.90;;;;;;4998037;28;20066;-61
2023/01/03 07:23:22;;;;;;;11.02;2.83;;;7.20;99.90;;;;;;4998259;28;20038;-61
2023/01/03 07:25:52;;;;;;;16.98;3.78;;;7.20;99.90;;;;;;4962856;28;20046;-59
2023/01/03 07:28:21;;;;;;;12.18;2.97;;;7.20;99.90;;;;;;4964156;28;20051;-61
2023/01/03 07:30:48;;;;;;;14.95;3.05;;;7.20;99.90;;;;;;4980109;28;20046;-60
2023/01/03 07:33:18;;;;;;;15.48;2.67;;;7.20;99.90;;;;;;4996497;28;20044;-60
2023/01/03 07:35:45;;;;;;;10.48;1.92;;;7.50;99.90;;;;;;4997470;28;20047;-60
2023/01/03 07:38:13;;;;;;;15.88;1.98;;;7.30;99.90;;;;;;4972157;28;20030;-61
2023/01/03 07:40:42;;;;;;;8.32;2.53;;;7.30;99.90;;;;;;4979602;28;20061;-60
2023/01/03 07:45:57;;;;;;;12.52;2.30;;;7.40;99.90;;;;;;4988630;28;20046;-60
2023/01/03 07:48:24;;;;;;;13.23;1.60;;;7.40;99.90;;;;;;4995313;28;20055;-61
2023/01/03 07:50:57;;;;;;;10.30;1.80;;;7.50;99.90;;;;;;4978490;28;20030;-61
2023/01/03 07:53:24;;;;;;;8.25;2.10;;;7.60;99.90;;;;;;4994803;28;20031;-60
2023/01/03 07:55:50;;;;;;;10.85;1.70;;;7.60;99.90;;;;;;4989815;28;20035;-60
2023/01/03 07:58:21;;;;;;;23.25;5.45;;;7.60;99.90;;;;;;4989742;28;20061;-61
2023/01/03 08:00:49;;;;;;;19.60;3.53;;;7.60;99.90;;;;;;4986124;28;20050;-62
2023/01/03 08:03:16;;;;;;;12.82;2.50;;;7.70;99.90;;;;;;4953986;28;20097;-62
2023/01/03 08:05:43;;;;;;;21.08;3.50;;;7.80;99.90;;;;;;4972015;28;20459;-63
2023/01/03 08:08:10;;;;;;;14.52;2.22;;;7.80;99.90;;;;;;4973052;28;20050;-62
2023/01/03 08:13:23;;;;;;;9.35;2.13;;;7.90;99.90;;;;;;4957918;28;20043;-63
2023/01/03 08:15:54;;;;;;;16.42;2.38;;;7.90;99.90;;;;;;4951445;29;20163;-63
2023/01/03 08:18:23;;;;;;;12.88;2.88;;;7.90;99.90;;;;;;4951974;29;20054;-62
2023/01/03 08:20:50;;;;;;;20.35;2.22;;;8.00;99.90;;;;;;4966955;28;20097;-63
2023/01/03 08:23:17;;;;;;;10.85;1.77;;;8.00;99.90;;;;;;4972157;28;20086;-62
2023/01/03 08:25:45;;;;;;;14.10;1.70;;;8.10;99.90;;;;;;4954893;28;20051;-63
2023/01/03 08:28:12;;;;;;;9.95;1.95;;;8.10;99.90;;;;;;4972339;28;20109;-63
2023/01/03 08:30:44;;;;;;;15.52;2.75;;;8.20;99.90;;;;;;4971495;28;20105;-65
2023/01/03 08:33:12;;;;;;;17.80;3.35;;;8.20;99.90;;;;;;4954751;28;20110;-64
2023/01/03 08:35:41;;;;;;;18.17;2.03;;;8.30;99.90;;;;;;4954772;28;20469;-64
2023/01/03 08:38:11;;;;;;;12.98;1.85;;;8.40;99.90;;;;;;4955205;28;20081;-65
2023/01/03 08:40:38;;;;;;;14.35;2.72;;;8.40;99.90;;;;;;4955753;28;20066;-63
2023/01/03 08:43:09;;;;;;;17.25;2.60;;;8.50;99.90;;;;;;4939915;28;20047;-65
2023/01/03 08:45:37;;;;;;;15.35;2.00;;;8.50;99.90;;;;;;4938262;28;20051;-65
2023/01/03 08:48:05;;;;;;;21.33;2.88;;;8.60;99.90;;;;;;4938979;28;20303;-65
2023/01/03 08:50:31;;;;;;;23.65;3.55;;;8.60;99.90;;;;;;4939045;28;20402;-63
2023/01/03 08:52:58;;;;;;;17.40;2.10;;;8.70;99.90;;;;;;4956082;28;20464;-64
2023/01/03 08:55:25;;;;;;;11.65;2.28;;;8.80;99.90;;;;;;4975379;28;20074;-64
2023/01/03 08:57:52;;;;;;;23.98;3.22;;;8.80;99.90;;;;;;4974612;28;20081;-65
2023/01/03 09:00:19;;;;;;;17.35;2.42;;;8.90;99.90;;;;;;4970280;28;20506;-65
2023/01/03 09:02:49;;;;;;;32.53;3.63;;;8.90;99.90;;;;;;4942066;28;20050;-63
2023/01/03 09:05:17;;;;;;;18.25;2.60;;;9.00;99.90;;;;;;4974185;28;20093;-64
2023/01/03 09:07:45;;;;;;;23.63;6.75;;;9.00;99.90;;;;;;4972487;28;20099;-64
2023/01/03 09:10:12;;;;;;;17.85;3.28;;;9.10;99.90;;;;;;4957482;28;20121;-64
2023/01/03 09:12:38;;;;;;;17.10;2.92;;;9.10;99.90;;;;;;4957775;28;20477;-63
2023/01/03 09:15:06;;;;;;;23.27;2.40;;;9.20;99.90;;;;;;4975416;28;20569;-64
2023/01/03 09:17:42;;;;;;;20.67;3.05;;;9.20;99.90;;;;;;4976737;28;20079;-63
2023/01/03 09:20:13;;;;;;;;;;;9.30;99.90;;;;;;4978716;28;20054;-64
2023/01/03 09:22:42;;;;;;;14.80;2.20;;;9.30;99.90;;;;;;4977518;28;19925;-65
2023/01/03 09:25:09;;;;;;;13.27;2.05;;;9.40;99.90;;;;;;4947612;28;20078;-65
2023/01/03 09:27:35;;;;;;;20.45;3.90;;;9.40;99.90;;;;;;4977821;28;20321;-64
2023/01/03 09:30:03;;;;;;;24.83;3.40;;;9.40;99.90;;;;;;4963639;28;20055;-64
2023/01/03 09:32:29;;;;;;;17.15;2.25;;;9.40;99.90;;;;;;4979866;28;20047;-64
2023/01/03 09:34:56;;;;;;;15.05;3.53;;;9.40;99.90;;;;;;4980718;28;20042;-65
2023/01/03 09:37:23;;;;;;;19.75;2.63;;;9.40;99.90;;;;;;4946231;28;20182;-65
2023/01/03 09:39:50;;;;;;;13.50;2.35;;;9.40;99.90;;;;;;4980497;28;20082;-63
2023/01/03 09:45:10;;;;;;;12.27;2.67;;;9.40;99.90;;;;;;4954445;28;20053;-64
2023/01/03 09:47:38;;;;;;;21.48;2.42;;;9.50;99.90;;;;;;4942336;28;20414;-64
2023/01/03 09:50:06;;;;;;;13.13;2.25;;;9.40;99.90;;;;;;4948067;28;20058;-64
2023/01/03 10:05:10;;;;;;;17.63;3.10;;;9.50;99.90;;;;;;4977290;28;20047;-64
2023/01/03 10:08:05;;;;;;;18.20;3.50;;;9.50;99.90;;;;;;4975576;28;20632;-63
2023/01/03 10:10:45;;;;;;;13.85;2.47;;;9.40;99.90;;;;;;4939861;28;20078;-63
2023/01/03 10:13:24;;;;;;;14.95;1.90;;;9.40;99.90;;;;;;4976243;28;20085;-62
2023/01/03 10:16:36;;;;;;;17.05;2.47;;;9.40;99.90;;;;;;4960403;28;20042;-63
2023/01/03 10:19:23;;;;;;;6.78;2.10;;;9.50;99.90;;;;;;4957056;28;20279;-63
2023/01/03 10:22:03;;;;;;;16.20;2.42;;;9.30;99.90;;;;;;4960511;28;20059;-64
2023/01/03 10:24:32;;;;;;;22.98;4.28;;;9.30;99.90;;;;;;4963989;28;20051;-64
2023/01/03 10:27:16;;;;;;;16.40;2.55;;;9.30;99.90;;;;;;4963118;28;20050;-64
2023/01/03 10:29:43;;;;;;;10.30;2.65;;;9.30;99.90;;;;;;4979914;28;20467;-63
2023/01/03 10:32:38;;;;;;;18.55;2.58;;;9.30;99.90;;;;;;4945752;28;20050;-63
2023/01/03 10:35:20;;;;;;;16.27;2.58;;;9.30;99.90;;;;;;4967946;28;20445;-64
2023/01/03 10:37:51;;;;;;;16.70;3.92;;;9.30;99.90;;;;;;4981627;28;20074;-64
2023/01/03 10:40:18;;;;;;;11.20;2.17;;;9.30;99.90;;;;;;4962962;28;20071;-64
2023/01/03 10:42:46;;;;;;;16.10;2.63;;;9.30;99.90;;;;;;4964457;28;20138;-63
2023/01/03 10:45:19;;;;;;;15.25;3.38;;;9.30;99.90;;;;;;4947846;28;20046;-63
2023/01/03 10:47:59;;;;;;;;;;;9.40;99.90;;;;;;4965444;28;20058;-64
2023/01/03 10:50:27;;;;;;;11.60;2.67;;;9.30;99.90;;;;;;4983085;28;19922;-64
2023/01/03 10:53:04;;;;;;;17.63;3.20;;;9.30;99.90;;;;;;4982643;28;20047;-63
2023/01/03 10:55:31;;;;;;;19.90;3.70;;;9.40;99.90;;;;;;4965433;28;20101;-62
2023/01/03 10:58:00;;;;;;;18.13;2.10;;;9.30;99.90;;;;;;4953374;28;20130;-61
2023/01/03 11:00:28;;;;;;;14.77;2.65;;;9.40;99.90;;;;;;4988174;28;20069;-64
2023/01/03 11:03:03;;;;;;;17.52;2.40;;;9.40;99.90;;;;;;4986803;28;20308;-63
2023/01/03 11:05:30;;;;;;;21.40;2.72;;;9.40;99.90;;;;;;4955852;28;20399;-63
2023/01/03 11:08:02;;;;;;;16.38;2.95;;;9.40;99.90;;;;;;4970709;28;20050;-63
2023/01/03 11:10:58;;;;;;;20.45;2.47;;;9.50;99.90;;;;;;4987356;28;20051;-64
2023/01/03 11:13:35;;;;;;;24.85;3.60;;;9.50;99.90;;;;;;4978142;28;20059;-64
2023/01/03 11:16:03;;;;;;;13.57;2.17;;;9.50;99.90;;;;;;4979167;28;20051;-64
2023/01/03 11:18:30;;;;;;;13.48;3.20;;;9.50;99.90;;;;;;4969522;28;20051;-64
2023/01/03 11:21:13;;;;;;;20.35;2.80;;;9.50;99.90;;;;;;4969783;28;20043;-64
2023/01/03 11:24:01;;;;;;;14.75;2.40;;;9.50;99.90;;;;;;4984171;28;20046;-64
2023/01/03 11:26:36;;;;;;;9.07;3.08;;;9.50;99.90;;;;;;4988783;28;20070;-63
2023/01/03 11:29:29;;;;;;;15.38;2.47;;;9.50;99.90;;;;;;4988533;28;20396;-63
2023/01/03 11:32:33;;;;;;;17.10;3.28;;;9.50;99.90;;;;;;4984045;28;20039;-65
2023/01/03 11:35:03;;;;;;;20.77;3.00;;;9.50;99.90;;;;;;4968837;29;20055;-64
2023/01/03 11:38:09;;;;;;;17.00;2.78;;;9.50;99.90;;;;;;4987878;28;20054;-64
2023/01/03 11:40:57;;;;;;;22.73;2.47;;;9.50;99.90;;;;;;4973016;28;20054;-62
2023/01/03 11:43:47;;;;;;;14.48;2.53;;;9.50;99.90;;;;;;4987050;28;20051;-65
2023/01/03 11:46:20;;;;;;;16.15;3.70;;;9.50;99.90;;;;;;4980685;28;20042;-63
2023/01/03 11:48:59;;;;;;;12.90;2.20;;;9.50;99.90;;;;;;4989604;28;20066;-64
2023/01/03 11:51:40;;;;;;;20.27;3.10;;;9.50;99.90;;;;;;4969637;28;20050;-63
2023/01/03 11:54:30;;;;;;;15.60;3.08;;;9.50;99.90;;;;;;4971180;28;20077;-63
2023/01/03 11:56:57;;;;;;;12.45;2.45;;;9.50;99.90;;;;;;4987648;28;20608;-63
2023/01/03 12:00:10;;;;;;;12.05;2.60;;;9.60;99.90;;;;;;4947089;28;20147;-63
2023/01/03 12:02:42;;;;;;;18.73;2.22;;;9.50;99.90;;;;;;4923779;29;20084;-63
2023/01/03 12:05:41;;;;;;;16.80;2.40;;;9.50;99.90;;;;;;4982916;28;20170;-64
2023/01/03 12:08:34;;;;;;;12.07;2.65;;;9.50;99.90;;;;;;4945609;28;20050;-66
2023/01/03 12:11:25;;;;;;;14.75;2.40;;;9.50;99.90;;;;;;4985011;28;20181;-64
2023/01/03 12:13:52;;;;;;;16.20;2.05;;;9.50;99.90;;;;;;4987518;28;20051;-63
2023/01/03 12:16:25;;;;;;;13.52;2.20;;;9.50;99.90;;;;;;4999405;28;20054;-63
2023/01/03 12:18:54;;;;;;;10.77;2.03;;;9.50;99.90;;;;;;4975067;28;20047;-63
2023/01/03 12:21:31;;;;;;;16.73;2.15;;;9.50;99.90;;;;;;4986789;28;20055;-63
2023/01/03 12:24:26;;;;;;;13.93;2.20;;;9.50;99.90;;;;;;4954703;28;20050;-64
2023/01/03 12:27:14;;;;;;;11.90;2.25;;;9.50;99.90;;;;;;4933603;29;20094;-64
2023/01/03 12:30:01;;;;;;;11.32;2.22;;;9.50;99.90;;;;;;4986109;28;20050;-62
2023/01/03 12:32:56;;;;;;;17.13;2.50;;;9.50;99.90;;;;;;4951927;28;20111;-63
2023/01/03 12:35:56;;;;;;;19.27;2.20;;;9.60;99.90;;;;;;4982766;28;20498;-63
2023/01/03 12:38:27;;;;;;;16.52;2.88;;;9.50;99.90;;;;;;4955417;28;20051;-63
2023/01/03 12:40:57;;;;;;;7.97;1.80;;;9.50;99.90;;;;;;4950269;28;20057;-65
2023/01/03 12:43:32;;;;;;;8.98;2.03;;;9.60;99.90;;;;;;4952053;28;20047;-64
2023/01/03 12:46:03;;;;;;;17.85;2.20;;;9.50;99.90;;;;;;4944173;28;20279;-65
2023/01/03 12:48:59;;;;;;;15.75;2.45;;;9.50;99.90;;;;;;4954912;28;20043;-66
2023/01/03 12:51:27;;;;;;;18.85;2.33;;;9.50;99.90;;;;;;4969414;28;20051;-64
2023/01/03 12:54:15;;;;;;;10.10;1.23;;;9.50;99.90;;;;;;4954451;28;20081;-64
2023/01/03 12:56:42;;;;;;;12.07;1.80;;;9.50;99.90;;;;;;4987131;28;20051;-65
2023/01/03 12:59:38;;;;;;;16.83;3.67;;;9.60;99.90;;;;;;4989381;28;20102;-64
2023/01/03 13:02:20;;;;;;;10.27;1.90;;;9.60;99.90;;;;;;4990547;28;20074;-63
2023/01/03 13:04:50;;;;;;;13.32;3.00;;;9.60;99.90;;;;;;4973433;28;20039;-63
2023/01/03 13:07:28;;;;;;;17.23;3.03;;;9.60;99.90;;;;;;4974114;28;20051;-64
2023/01/03 13:10:13;;;;;;;12.77;1.98;;;9.60;99.90;;;;;;4956726;28;20050;-65
2023/01/03 13:12:40;;;;;;;13.15;2.08;;;9.60;99.90;;;;;;4958487;28;20093;-65
2023/01/03 13:15:18;;;;;;;9.18;1.63;;;9.60;99.90;;;;;;4973920;28;20058;-65
2023/01/03 13:17:46;;;;;;;12.85;2.08;;;9.60;99.90;;;;;;4973951;28;20082;-65
2023/01/03 13:20:13;;;;;;;8.02;2.58;;;9.70;99.90;;;;;;4971547;28;20049;-64
2023/01/03 13:22:44;;;;;;;16.52;2.38;;;9.70;99.90;;;;;;4988809;28;20047;-64
2023/01/03 13:25:29;;;;;;;15.02;2.47;;;9.70;99.90;;;;;;4990812;28;20085;-64
2023/01/03 13:27:58;;;;;;;11.57;2.75;;;9.70;99.90;;;;;;4990600;28;20043;-64
2023/01/03 13:30:29;;;;;;;11.55;2.03;;;9.70;99.90;;;;;;4971052;28;20078;-65
2023/01/03 13:33:15;;;;;;;11.90;2.60;;;9.80;99.90;;;;;;4987135;28;20106;-63
2023/01/03 13:35:45;;;;;;;10.43;2.35;;;9.80;99.90;;;;;;4988884;28;20125;-62
2023/01/03 13:38:37;;;;;;;17.33;4.32;;;9.80;99.90;;;;;;4985896;28;20085;-64
2023/01/03 13:41:08;;;;;;;21.40;4.72;;;9.80;99.90;;;;;;4988636;28;20486;-63
2023/01/03 13:43:49;;;;;;;13.82;3.75;;;9.80;99.90;;;;;;4973030;28;20058;-64
2023/01/03 13:46:30;;;;;;;15.60;4.57;;;9.80;99.90;;;;;;4956764;28;20106;-64
2023/01/03 13:49:04;;;;;;;14.63;4.50;;;9.90;99.90;;;;;;4972400;28;20403;-65
2023/01/03 13:51:32;;;;;;;20.80;8.32;;;9.90;99.90;;;;;;4985277;28;20051;-65
2023/01/03 13:54:24;;;;;;;19.75;4.82;;;9.90;99.90;;;;;;4986092;28;20066;-63
2023/01/03 13:56:51;;;;;;;24.58;7.05;;;9.90;99.90;;;;;;4986837;28;20070;-64
2023/01/03 13:59:25;;;;;;;18.65;4.75;;;9.90;99.90;;;;;;4985935;28;20062;-63
2023/01/03 14:01:58;;;;;;;;;;;9.90;99.90;;;;;;4967458;28;20114;-64
2023/01/03 14:04:58;;;;;;;24.00;3.72;;;9.90;99.90;;;;;;4997226;28;19968;-64
2023/01/03 14:07:52;;;;;;;14.48;3.70;;;10.00;99.90;;;;;;4950486;28;20047;-63
2023/01/03 14:10:38;;;;;;;18.27;3.67;;;10.00;99.90;;;;;;4953536;29;20130;-63
2023/01/03 14:13:46;;;;;;;30.63;5.75;;;10.00;99.90;;;;;;4984685;28;20046;-62
2023/01/03 14:16:29;;;;;;;11.60;4.55;;;10.00;99.90;;;;;;4969666;28;20138;-64
2023/01/03 14:19:10;;;;;;;17.55;3.83;;;10.00;99.90;;;;;;4970036;28;20058;-63
2023/01/03 14:21:57;;;;;;;22.05;3.72;;;10.00;99.90;;;;;;4968567;28;20043;-64
2023/01/03 14:24:53;;;;;;;14.50;2.95;;;10.10;99.90;;;;;;4948673;28;20604;-64
2023/01/03 14:27:21;;;;;;;23.45;2.95;;;10.00;99.90;;;;;;4984311;28;20114;-64
2023/01/03 14:29:50;;;;;;;20.08;4.80;;;10.00;99.90;;;;;;4954968;28;20046;-64